Main page
METAR-TAF:

METAR-TAF

Airports :

Béziers Cap d'Agde Airport

Béziers, France

latitude: 43-19N, longitude: 003-21E, elevation: 17 m

Current weather observation

The report was made 16 minutes ago, at 20:00 UTC
Wind 8 kt from the West/Northwest
Temperature 4°C
Humidity 52%
Pressure 1030 hPa
Visibility 10 km or more
no clouds below 1500 m and no cumulonimbus

METAR: LFMU 212000Z AUTO 29008KT CAVOK 04/M05 Q1030

Time: 21:16 (20:16 UTC)

Forecast

The report was made 1 hour and 6 minutes ago, at 19:10 UTC
Forecast valid from 21 at 19 UTC to 22 at 15 UTC
Wind 10 kt from the Northwest
Visibility 10 km or more
no clouds below 1500 m and no cumulonimbus
Becoming
from 21 at 19 UTC to 21 at 20 UTC
Wind 10 kt from the West

TAF: LFMU 211910Z 2119/2215 31010KT CAVOK BECMG 2119/2120 27010KT

Weather observations and forecasts of more than 4000 airports (METAR and TAF reports).

The available stations are represented by yellow and red dots on the map.

Hover mouse over dot to see the name of the station.

Then click to see weather observations and forecasts.

To change the map : click on the green buttons with a black cross to zoom in, on the green button with a dash to zoom out, or on the green arrows for adjacent maps.


METAR-TAF: